.
WxDataArchive / Data Records for 2011-04-29
2011-04-28 April 2011 2011-04-30

Data Records for Friday, 29 April 2011

Time	Temp	Chill	HIndex	Humid	Dewpt	 Wind 	HiWind	WindDir	Rain 	Barom 
-----	----	-----	------	-----	-----	------	------	-------	-----	----- 
00:00	42.5	42.5	42.5	85	38.3	1	3	270	0.00	29.817 
00:05	42.2	42.2	42.2	84	37.7	2	3	315	0.00	29.817 
00:10	42.1	42.1	42.1	84	37.6	2	4	315	0.00	29.817 
00:15	42.1	42.1	42.1	84	37.6	1	2	270	0.00	29.815 
00:20	41.9	41.9	41.9	84	37.4	1	3	270	0.00	29.815 
00:25	41.9	41.9	41.9	85	37.7	1	3	270	0.00	29.815 
00:30	41.9	41.9	41.9	86	38.0	1	4	270	0.00	29.818 
00:35	42.1	42.1	42.1	85	37.9	2	4	248	0.00	29.818 
00:40	42.1	42.1	42.1	85	37.9	1	3	248	0.00	29.818 
00:45	42.1	42.1	42.1	85	37.9	1	4	248	0.00	29.818 
00:50	42.1	42.1	42.1	85	37.9	2	4	248	0.00	29.818 
00:55	42.2	42.2	42.2	84	37.7	1	3	248	0.00	29.818 
01:00	42.2	42.2	42.2	84	37.7	1	4	248	0.00	29.817 
01:05	42.3	42.3	42.3	84	37.8	1	2	248	0.00	29.817 
01:10	42.3	42.3	42.3	84	37.8	1	3	248	0.00	29.817 
01:15	42.3	42.3	42.3	84	37.8	1	3	248	0.00	29.822 
01:20	42.5	42.5	42.5	84	38.0	1	2	248	0.00	29.822 
01:25	42.5	42.5	42.5	83	37.7	1	2	248	0.00	29.822 
01:30	42.5	42.5	42.5	84	38.0	1	3	248	0.00	29.823 
01:35	42.5	42.5	42.5	84	38.0	1	3	248	0.00	29.823 
01:40	42.3	42.3	42.3	84	37.8	1	3	248	0.00	29.823 
01:45	42.3	42.3	42.3	84	37.8	1	3	248	0.00	29.825 
01:50	42.3	42.3	42.3	84	37.8	1	2	248	0.00	29.825 
01:55	42.3	42.3	42.3	84	37.8	1	3	248	0.00	29.825 
02:00	42.3	42.3	42.3	85	38.1	1	3	248	0.00	29.824 
02:05	42.3	42.3	42.3	85	38.1	2	4	248	0.00	29.824 
02:10	42.3	42.3	42.3	85	38.1	2	3	248	0.00	29.824 
02:15	42.3	42.3	42.3	86	38.4	0	3	248	0.00	29.824 
02:20	42.2	42.2	42.2	86	38.3	1	4	248	0.00	29.824 
02:25	42.2	42.2	42.2	87	38.6	1	3	248	0.01	29.824 
02:30	42.1	42.1	42.1	88	38.8	1	4	248	0.00	29.823 
02:35	42.1	42.1	42.1	88	38.8	1	3	248	0.00	29.823 
02:40	41.9	41.9	41.9	88	38.6	2	4	248	0.00	29.823 
02:45	41.9	41.9	41.9	89	38.9	1	3	248	0.00	29.822 
02:50	41.9	41.9	41.9	89	38.9	1	3	248	0.00	29.822 
02:55	41.8	41.8	41.8	89	38.8	1	3	248	0.00	29.822 
03:00	41.8	41.8	41.8	90	39.1	1	3	248	0.00	29.822 
03:05	41.8	41.8	41.8	90	39.1	1	3	248	0.00	29.822 
03:10	41.8	41.8	41.8	90	39.1	1	3	248	0.00	29.822 
03:15	41.8	41.8	41.8	90	39.1	1	3	248	0.00	29.821 
03:20	41.8	41.8	41.8	90	39.1	1	4	248	0.00	29.821 
03:25	41.8	41.8	41.8	90	39.1	1	3	248	0.00	29.821 
03:30	41.8	41.8	41.8	90	39.1	1	3	248	0.00	29.820 
03:35	41.6	41.6	41.6	90	38.9	2	4	248	0.00	29.820 
03:40	41.6	41.6	41.6	90	38.9	1	3	292	0.00	29.820 
03:45	41.6	41.6	41.6	91	39.2	0	2	292	0.00	29.821 
03:50	41.6	41.6	41.6	91	39.2	1	2	292	0.00	29.821 
03:55	41.6	41.6	41.6	91	39.2	0	2	292	0.00	29.821 
04:00	41.6	41.6	41.6	91	39.2	0	1	292	0.00	29.821 
04:05	41.6	41.6	41.6	91	39.2	1	2	292	0.00	29.821 
04:10	41.6	41.6	41.6	92	39.5	0	2	292	0.00	29.821 
04:15	41.6	41.6	41.6	92	39.5	0	1	292	0.00	29.823 
04:20	41.8	41.8	41.8	92	39.6	0	1	292	0.00	29.823 
04:25	41.8	41.8	41.8	92	39.6	0	1	292	0.00	29.823 
04:30	41.8	41.8	41.8	92	39.6	0	2	292	0.00	29.825 
04:35	41.8	41.8	41.8	92	39.6	0	2	292	0.00	29.825 
04:40	41.9	41.9	41.9	92	39.7	0	2	292	0.00	29.825 
04:45	41.9	41.9	41.9	92	39.7	0	1	292	0.00	29.826 
04:50	41.9	41.9	41.9	92	39.7	1	3	292	0.00	29.826 
04:55	41.9	41.9	41.9	91	39.5	1	5	270	0.00	29.826 
05:00	41.9	41.9	41.9	91	39.5	1	4	270	0.01	29.830 
05:05	41.8	41.8	41.8	91	39.4	1	3	315	0.00	29.830 
05:10	41.6	41.6	41.6	91	39.2	2	5	270	0.00	29.830 
05:15	41.5	41.5	41.5	91	39.1	1	2	315	0.00	29.838 
05:20	41.3	41.3	41.3	91	38.9	2	5	315	0.00	29.838 
05:25	41.1	41.1	41.1	91	38.7	2	5	270	0.00	29.838 
05:30	40.9	40.9	40.9	91	38.5	2	4	270	0.00	29.842 
05:35	40.9	40.9	40.9	91	38.5	1	3	315	0.00	29.842 
05:40	40.8	40.8	40.8	91	38.4	2	5	338	0.00	29.842 
05:45	40.8	40.8	40.8	91	38.4	1	4	315	0.00	29.851 
05:50	40.6	40.6	40.6	90	37.9	2	5	315	0.00	29.851 
05:55	40.6	40.6	40.6	90	37.9	1	4	0	0.00	29.851 
06:00	40.6	40.6	40.6	90	37.9	1	3	0	0.00	29.857 
06:05	40.6	40.6	40.6	90	37.9	1	3	338	0.00	29.857 
06:10	40.5	40.5	40.5	89	37.5	1	3	338	0.00	29.857 
06:15	40.2	40.2	40.2	88	36.9	2	5	270	0.00	29.872 
06:20	39.9	39.9	39.9	88	36.6	2	5	315	0.00	29.872 
06:25	39.8	39.8	39.8	86	36.0	1	4	315	0.00	29.872 
06:30	39.8	39.8	39.8	86	36.0	1	3	315	0.00	29.877 
06:35	39.8	39.8	39.8	86	36.0	1	4	248	0.00	29.877 
06:40	39.8	39.8	39.8	85	35.7	1	5	338	0.00	29.877 
06:45	39.8	39.8	39.8	84	35.4	2	5	270	0.00	29.885 
06:50	39.8	39.8	39.8	84	35.4	1	4	270	0.00	29.885 
06:55	39.6	39.6	39.6	85	35.5	1	3	270	0.01	29.885 
07:00	39.6	39.6	39.6	84	35.2	2	4	338	0.00	29.895 
07:05	39.6	39.6	39.6	84	35.2	2	5	248	0.00	29.895 
07:10	39.5	39.5	39.5	84	35.1	1	4	315	0.00	29.895 
07:15	39.5	39.5	39.5	84	35.1	1	3	292	0.00	29.909 
07:20	39.5	39.5	39.5	84	35.1	3	7	270	0.00	29.909 
07:25	39.5	39.5	39.5	84	35.1	1	3	338	0.00	29.909 
07:30	39.5	39.5	39.5	84	35.1	1	5	315	0.00	29.923 
07:35	39.5	39.5	39.5	84	35.1	1	3	338	0.00	29.923 
07:40	39.6	39.6	39.6	84	35.2	2	5	248	0.00	29.923 
07:45	39.6	39.6	39.6	84	35.2	1	5	338	0.00	29.933 
07:50	39.6	39.6	39.6	84	35.2	1	3	338	0.00	29.933 
07:55	39.6	39.6	39.6	84	35.2	1	3	315	0.00	29.933 
08:00	39.6	39.6	39.6	83	34.9	2	5	270	0.00	29.941 
08:05	39.6	39.6	39.6	83	34.9	2	4	315	0.00	29.941 
08:10	39.8	39.8	39.8	83	35.1	1	3	315	0.00	29.941 
08:15	39.8	39.8	39.8	83	35.1	2	5	315	0.00	29.954 
08:20	39.8	39.8	39.8	83	35.1	2	4	292	0.00	29.954 
08:25	39.8	39.8	39.8	83	35.1	2	6	270	0.00	29.954 
08:30	39.8	39.8	39.8	83	35.1	2	4	292	0.00	29.958 
08:35	40.1	40.1	40.1	83	35.4	1	2	292	0.00	29.958 
08:40	40.1	40.1	40.1	83	35.4	1	3	315	0.00	29.958 
08:45	40.1	40.1	40.1	83	35.4	1	4	338	0.00	29.969 
08:50	40.2	40.2	40.2	83	35.5	2	5	270	0.00	29.969 
08:55	40.3	40.3	40.3	82	35.2	2	6	292	0.00	29.969 
09:00	40.5	40.5	40.5	82	35.4	2	5	292	0.00	29.977 
09:05	40.6	40.6	40.6	82	35.5	1	5	338	0.00	29.977 
09:10	40.9	40.9	40.9	81	35.5	1	4	315	0.00	29.977 
09:15	41.1	41.1	41.1	81	35.7	2	5	315	0.00	29.986 
09:20	41.1	41.1	41.1	80	35.4	2	5	270	0.00	29.986 
09:25	41.2	41.2	41.2	78	34.9	3	5	270	0.00	29.986 
09:30	41.3	41.3	41.3	79	35.3	1	5	270	0.00	29.989 
09:35	42.2	42.2	42.2	79	36.2	1	4	270	0.00	29.989 
09:40	42.3	42.3	42.3	77	35.6	2	5	315	0.00	29.989 
09:45	42.2	42.2	42.2	76	35.2	2	5	270	0.00	29.995 
09:50	42.5	42.5	42.5	77	35.8	1	5	315	0.00	29.995 
09:55	42.8	42.8	42.8	75	35.4	1	5	22	0.00	29.995 
10:00	43.8	43.8	43.8	77	37.1	1	3	338	0.00	29.988 
10:05	44.5	44.5	44.5	73	36.4	2	4	270	0.00	29.988 
10:10	44.6	44.6	44.6	72	36.1	1	3	270	0.00	29.988 
10:15	44.9	44.9	44.9	73	36.8	2	4	315	0.00	29.990 
10:20	45.7	45.7	45.7	73	37.5	1	3	315	0.00	29.990 
10:25	46.1	46.1	46.1	71	37.2	2	5	248	0.00	29.990 
10:30	45.5	45.5	45.5	69	35.9	2	3	248	0.00	29.996 
10:35	45.7	45.7	45.7	71	36.8	1	3	248	0.00	29.996 
10:40	46.1	46.1	46.1	69	36.5	1	3	315	0.00	29.996 
10:45	46.8	46.8	46.8	69	37.2	2	4	338	0.00	29.994 
10:50	47.1	47.1	47.1	67	36.7	2	4	292	0.00	29.994 
10:55	47.6	47.6	47.6	66	36.8	2	5	270	0.00	29.994 
11:00	47.7	47.7	47.7	65	36.5	2	4	292	0.00	29.991 
11:05	48.2	48.2	48.2	65	37.0	2	4	315	0.00	29.991 
11:10	48.5	48.5	48.5	64	36.9	2	5	270	0.00	29.991 
11:15	48.8	48.8	48.8	64	37.2	2	4	292	0.00	29.994 
11:20	49.1	49.1	49.1	64	37.5	3	5	270	0.00	29.994 
11:25	49.2	49.2	49.2	63	37.1	2	5	338	0.00	29.994 
11:30	49.6	49.6	49.6	64	37.9	2	4	270	0.00	29.995 
11:35	50.1	50.1	50.1	62	37.6	2	4	248	0.00	29.995 
11:40	50.4	50.4	50.4	61	37.5	3	5	270	0.00	29.995 
11:45	50.5	50.5	50.5	61	37.6	3	6	270	0.00	29.996 
11:50	50.7	50.7	50.7	58	36.5	2	9	338	0.00	29.996 
11:55	51.1	51.1	51.1	60	37.7	2	4	270	0.00	29.996 
12:00	51.7	51.7	51.7	57	37.0	3	7	270	0.00	29.994 
12:05	51.9	51.9	51.9	58	37.6	3	9	270	0.00	29.994 
12:10	52.0	52.0	52.0	56	36.8	3	6	270	0.00	29.994 
12:15	52.5	52.5	52.5	56	37.3	2	5	315	0.00	29.995 
12:20	52.9	52.9	52.9	55	37.2	3	5	270	0.00	29.995 
12:25	53.1	53.1	53.1	55	37.4	2	5	338	0.00	29.995 
12:30	53.3	53.3	53.3	54	37.1	2	5	270	0.00	29.995 
12:35	53.6	53.6	53.6	53	36.9	2	5	270	0.00	29.995 
12:40	54.2	54.2	54.2	58	39.7	2	4	270	0.00	29.995 
12:45	54.5	54.5	54.5	52	37.2	3	5	248	0.00	29.993 
12:50	54.7	54.7	54.7	53	37.9	2	5	270	0.00	29.993 
12:55	54.5	54.5	54.5	50	36.2	2	5	248	0.00	29.993 
13:00	55.0	55.0	55.0	51	37.2	2	5	270	0.00	29.992 
13:05	55.3	55.3	55.3	50	37.0	2	7	248	0.00	29.992 
13:10	55.4	55.4	55.4	50	37.1	4	7	270	0.00	29.992 
13:15	55.3	55.3	55.3	51	37.5	2	5	270	0.00	29.993 
13:20	55.7	55.7	55.7	51	37.9	2	5	270	0.00	29.993 
13:25	56.0	56.0	56.0	47	36.1	3	7	292	0.00	29.993 
13:30	56.0	56.0	56.0	46	35.5	2	5	338	0.00	29.993 
13:35	56.6	56.6	56.6	48	37.1	1	4	270	0.00	29.993 
13:40	57.0	57.0	57.0	47	37.0	3	7	270	0.00	29.993 
13:45	56.9	56.9	56.9	47	36.9	3	5	270	0.00	29.993 
13:50	57.0	57.0	57.0	47	37.0	3	6	270	0.00	29.993 
13:55	56.9	56.9	56.9	50	38.5	2	5	270	0.00	29.993 
14:00	57.2	57.2	57.2	48	37.7	3	5	270	0.00	29.996 
14:05	57.5	57.5	57.5	47	37.4	2	5	270	0.00	29.996 
14:10	57.5	57.5	57.5	50	39.0	2	5	270	0.00	29.996 
14:15	57.8	57.8	57.8	46	37.2	3	5	270	0.00	29.994 
14:20	57.3	57.3	57.3	46	36.7	2	5	248	0.00	29.994 
14:25	57.8	57.8	57.8	45	36.6	3	7	270	0.00	29.994 
14:30	58.3	58.3	58.3	43	35.9	3	6	270	0.00	29.999 
14:35	58.0	58.0	58.0	39	33.2	2	6	315	0.00	29.999 
14:40	57.8	57.8	57.8	44	36.0	2	4	338	0.00	29.999 
14:45	58.3	58.3	58.3	42	35.3	2	5	315	0.00	30.000 
14:50	58.4	58.4	58.4	42	35.4	2	6	315	0.00	30.000 
14:55	58.7	58.7	58.7	44	36.8	2	3	292	0.00	30.000 
15:00	59.2	59.2	59.2	44	37.3	1	4	315	0.00	30.003 
15:05	59.3	59.3	59.3	42	36.2	3	5	270	0.00	30.003 
15:10	59.0	59.0	59.0	41	35.3	2	5	270	0.00	30.003 
15:15	59.3	59.3	59.3	40	35.0	1	4	315	0.00	30.005 
15:20	59.2	59.2	59.2	39	34.3	3	7	270	0.00	30.005 
15:25	59.2	59.2	59.2	36	32.3	3	7	270	0.00	30.005 
15:30	58.9	58.9	58.9	38	33.3	2	5	270	0.00	30.002 
15:35	59.0	59.0	59.0	38	33.4	3	6	270	0.00	30.002 
15:40	58.9	58.9	58.9	42	35.9	2	6	338	0.00	30.002 
15:45	59.2	59.2	59.2	41	35.5	1	4	315	0.00	29.994 
15:50	59.3	59.3	59.3	37	33.0	2	6	0	0.00	29.994 
15:55	59.5	59.5	59.5	37	33.2	2	7	270	0.00	29.994 
16:00	59.5	59.5	59.5	37	33.2	2	6	0	0.00	29.998 
16:05	59.3	59.3	59.3	37	33.0	2	6	248	0.00	29.998 
16:10	59.5	59.5	59.5	38	33.9	2	5	315	0.00	29.998 
16:15	59.6	59.6	59.6	36	32.6	2	5	270	0.00	29.998 
16:20	59.8	59.8	59.8	35	32.1	2	4	270	0.00	29.998 
16:25	60.1	60.1	60.1	35	32.4	2	6	338	0.00	29.998 
16:30	59.9	59.9	59.9	34	31.5	3	11	270	0.00	30.001 
16:35	59.6	59.6	59.6	37	33.3	3	5	270	0.00	30.001 
16:40	59.3	59.3	59.3	38	33.7	2	4	0	0.00	30.001 
16:45	59.6	59.6	59.6	36	32.6	2	7	248	0.00	29.995 
16:50	59.8	59.8	59.8	36	32.8	3	6	270	0.00	29.995 
16:55	59.9	59.9	59.9	36	32.9	2	4	248	0.00	29.995 
17:00	59.5	59.5	59.5	35	31.8	2	5	315	0.00	30.000 
17:05	59.5	59.5	59.5	37	33.2	2	6	338	0.00	30.000 
17:10	59.8	59.8	59.8	38	34.1	2	4	270	0.00	30.000 
17:15	59.9	59.9	59.9	38	34.2	1	4	270	0.00	30.004 
17:20	59.9	59.9	59.9	35	32.2	3	6	292	0.00	30.004 
17:25	59.8	59.8	59.8	35	32.1	2	6	338	0.00	30.004 
17:30	59.6	59.6	59.6	34	31.2	1	4	0	0.00	30.005 
17:35	59.8	59.8	59.8	35	32.1	2	6	338	0.00	30.005 
17:40	59.6	59.6	59.6	36	32.6	2	5	248	0.00	30.005 
17:45	59.8	59.8	59.8	35	32.1	2	5	248	0.00	30.006 
17:50	59.8	59.8	59.8	33	30.6	2	5	315	0.00	30.006 
17:55	59.9	59.9	59.9	33	30.7	1	3	270	0.00	30.006 
18:00	60.1	60.1	60.1	34	31.6	2	5	270	0.00	30.007 
18:05	60.1	60.1	60.1	33	30.9	0	2	270	0.00	30.007 
18:10	60.2	60.2	60.2	31	29.5	1	3	270	0.00	30.007 
18:15	59.8	59.8	59.8	31	29.1	1	3	338	0.00	30.007 
18:20	59.5	59.5	59.5	31	28.8	1	2	315	0.00	30.007 
18:25	59.5	59.5	59.5	33	30.4	1	4	270	0.00	30.007 
18:30	59.5	59.5	59.5	33	30.4	1	3	292	0.00	30.009 
18:35	59.3	59.3	59.3	35	31.7	1	3	292	0.00	30.009 
18:40	59.2	59.2	59.2	33	30.1	1	4	315	0.00	30.009 
18:45	59.2	59.2	59.2	34	30.8	1	2	315	0.00	30.019 
18:50	59.2	59.2	59.2	33	30.1	1	5	270	0.00	30.019 
18:55	59.0	59.0	59.0	33	29.9	1	2	292	0.00	30.019 
19:00	58.9	58.9	58.9	33	29.9	1	5	292	0.00	30.023 
19:05	58.7	58.7	58.7	32	28.9	1	3	338	0.00	30.023 
19:10	58.6	58.6	58.6	33	29.6	1	3	315	0.00	30.023 
19:15	58.4	58.4	58.4	33	29.4	1	3	315	0.00	30.020 
19:20	58.4	58.4	58.4	32	28.7	1	4	225	0.00	30.020 
19:25	58.3	58.3	58.3	34	30.1	1	3	225	0.00	30.020 
19:30	58.3	58.3	58.3	34	30.1	0	2	225	0.00	30.020 
19:35	58.1	58.1	58.1	35	30.6	0	1	225	0.00	30.020 
19:40	58.0	58.0	58.0	33	29.1	0	2	315	0.00	30.020 
19:45	57.8	57.8	57.8	34	29.6	1	2	315	0.00	30.022 
19:50	57.5	57.5	57.5	35	30.1	0	2	315	0.00	30.022 
19:55	57.3	57.3	57.3	35	29.9	0	2	315	0.00	30.022 
20:00	57.2	57.2	57.2	36	30.5	0	2	315	0.00	30.026 
20:05	57.0	57.0	57.0	37	31.0	0	0	---	0.00	30.026 
20:10	56.9	56.9	56.9	36	30.2	0	0	---	0.00	30.026 
20:15	56.6	56.6	56.6	36	30.0	0	0	---	0.00	30.026 
20:20	56.3	56.3	56.3	37	30.4	0	0	---	0.00	30.026 
20:25	55.9	55.9	55.9	39	31.3	0	0	---	0.00	30.026 
20:30	55.3	55.3	55.3	39	30.8	0	0	---	0.00	30.033 
20:35	54.8	54.8	54.8	39	30.3	0	0	---	0.00	30.033 
20:40	54.4	54.4	54.4	40	30.6	0	0	---	0.00	30.033 
20:45	53.9	53.9	53.9	40	30.1	0	0	---	0.00	30.040 
20:50	53.5	53.5	53.5	41	30.4	0	0	---	0.00	30.040 
20:55	52.9	52.9	52.9	43	31.0	0	0	---	0.00	30.040 
21:00	52.3	52.3	52.3	44	31.0	0	0	---	0.00	30.043 
21:05	51.9	51.9	51.9	44	30.7	0	0	---	0.00	30.043 
21:10	51.3	51.3	51.3	48	32.3	0	0	---	0.00	30.043 
21:15	50.7	50.7	50.7	48	31.7	0	0	---	0.00	30.054 
21:20	50.2	50.2	50.2	49	31.8	0	0	---	0.00	30.054 
21:25	49.8	49.8	49.8	50	31.9	0	0	---	0.00	30.054 
21:30	49.5	49.5	49.5	52	32.6	0	0	---	0.00	30.061 
21:35	49.1	49.1	49.1	52	32.2	0	0	---	0.00	30.061 
21:40	48.8	48.8	48.8	53	32.4	0	0	---	0.00	30.061 
21:45	48.2	48.2	48.2	54	32.3	0	0	---	0.00	30.061 
21:50	47.7	47.7	47.7	53	31.4	0	0	---	0.00	30.061 
21:55	47.4	47.4	47.4	54	31.6	0	0	---	0.00	30.061 
22:00	47.0	47.0	47.0	55	31.7	0	0	---	0.00	30.064 
22:05	46.7	46.7	46.7	56	31.8	0	0	---	0.00	30.064 
22:10	46.4	46.4	46.4	57	32.0	0	0	---	0.00	30.064 
22:15	46.1	46.1	46.1	59	32.6	0	0	---	0.00	30.063 
22:20	45.8	45.8	45.8	60	32.7	0	0	---	0.00	30.063 
22:25	45.5	45.5	45.5	61	32.8	0	0	---	0.00	30.063 
22:30	45.4	45.4	45.4	62	33.2	0	0	---	0.00	30.073 
22:35	45.2	45.2	45.2	63	33.4	0	0	---	0.00	30.073 
22:40	45.1	45.1	45.1	64	33.7	0	0	---	0.00	30.073 
22:45	44.8	44.8	44.8	65	33.8	0	0	---	0.00	30.075 
22:50	44.6	44.6	44.6	65	33.6	0	0	---	0.00	30.075 
22:55	44.5	44.5	44.5	65	33.5	0	0	---	0.00	30.075 
23:00	44.2	44.2	44.2	65	33.2	0	0	---	0.00	30.073 
23:05	43.9	43.9	43.9	67	33.7	0	0	---	0.00	30.073 
23:10	43.8	43.8	43.8	68	33.9	0	0	---	0.00	30.073 
23:15	43.6	43.6	43.6	69	34.1	0	0	---	0.00	30.062 
23:20	43.5	43.5	43.5	70	34.4	0	0	---	0.00	30.062 
23:25	43.3	43.3	43.3	70	34.2	0	0	---	0.00	30.062 
23:30	43.2	43.2	43.2	71	34.4	0	0	---	0.00	30.059 
23:35	43.1	43.1	43.1	72	34.7	0	0	---	0.00	30.059 
23:40	42.9	42.9	42.9	73	34.9	0	0	---	0.00	30.059 
23:45	42.9	42.9	42.9	74	35.2	0	0	---	0.00	30.057 
23:50	42.9	42.9	42.9	75	35.5	0	0	---	0.00	30.057 
23:55	43.1	43.1	43.1	76	36.1	0	0	---	0.00	30.057 

CoCoRaHS
IN-AL-39
A2 Web Hosting
Creative Commons License
GoDaddy
search engine by freefind advanced

loaded 2018-11-15 14:18:20 • last modified 2010-11-18 10:43:29
Privacy PolicyDisclaimer
• wx.awcolley.com is powered by PmWiki v.2002016 •
• all content (unless otherwise noted) © 2018 A W Colley